createdAt,value
2022-12-08T00:02:00.417Z,15.07
2022-12-08T00:04:29.251Z,21.07
2022-12-08T00:07:15.090Z,31.07
2022-12-08T00:09:44.983Z,27.37
2022-12-08T00:12:15.437Z,27.60
2022-12-08T00:14:46.498Z,21.87
2022-12-08T00:17:17.354Z,16.40
2022-12-08T00:19:46.369Z,18.10
2022-12-08T00:22:15.372Z,19.70
2022-12-08T00:24:47.034Z,18.73
2022-12-08T00:27:18.214Z,19.10
2022-12-08T00:29:46.980Z,20.10
2022-12-08T00:32:15.497Z,21.50
2022-12-08T00:34:44.078Z,20.63
2022-12-08T00:37:12.798Z,19.47
2022-12-08T00:39:41.296Z,22.70
2022-12-08T00:42:14.435Z,20.90
2022-12-08T00:44:44.082Z,18.63
2022-12-08T00:47:12.959Z,20.87
2022-12-08T00:49:41.885Z,22.03
2022-12-08T00:52:10.588Z,22.73
2022-12-08T00:54:39.057Z,22.10
2022-12-08T00:57:07.593Z,23.93
2022-12-08T00:59:37.420Z,23.97
2022-12-08T01:02:06.060Z,27.43
2022-12-08T01:04:34.737Z,25.60
2022-12-08T01:07:03.128Z,24.37
2022-12-08T01:09:31.541Z,25.60
2022-12-08T01:12:00.315Z,26.40
2022-12-08T01:14:29.616Z,37.47
2022-12-08T01:16:59.362Z,28.33
2022-12-08T01:19:28.192Z,26.47
2022-12-08T01:21:56.558Z,28.60
2022-12-08T01:24:25.727Z,24.53
2022-12-08T01:26:55.612Z,30.73
2022-12-08T01:29:25.608Z,25.93
2022-12-08T01:31:57.014Z,25.90
2022-12-08T01:34:27.261Z,24.73
2022-12-08T01:36:56.116Z,23.57
2022-12-08T01:39:24.603Z,23.87
2022-12-08T01:41:53.054Z,24.23
2022-12-08T01:45:00.138Z,25.07
2022-12-08T01:47:34.403Z,24.00
2022-12-08T01:50:05.725Z,25.53
2022-12-08T01:52:39.082Z,25.90
2022-12-08T01:55:12.230Z,26.43
2022-12-08T01:57:44.749Z,26.87
2022-12-08T02:00:16.770Z,26.07
2022-12-08T02:02:54.289Z,25.80
2022-12-08T02:05:27.050Z,30.40
2022-12-08T02:07:57.133Z,28.00
2022-12-08T02:10:29.554Z,28.30
2022-12-08T02:12:59.770Z,27.70
2022-12-08T02:15:36.889Z,25.80
2022-12-08T02:18:17.233Z,28.10
2022-12-08T02:20:59.063Z,26.23
2022-12-08T02:23:36.010Z,28.63
2022-12-08T02:26:35.942Z,27.70
2022-12-08T02:29:30.060Z,26.70
2022-12-08T02:32:17.830Z,26.60
2022-12-08T02:34:56.092Z,29.87
2022-12-08T02:37:29.409Z,27.03
2022-12-08T02:40:04.672Z,26.77
2022-12-08T02:42:39.425Z,27.60
2022-12-08T02:45:14.180Z,28.80
2022-12-08T02:47:42.827Z,28.97
2022-12-08T02:50:13.562Z,30.13
2022-12-08T02:52:44.266Z,29.17
2022-12-08T02:55:21.744Z,32.90
2022-12-08T02:58:08.888Z,32.97
2022-12-08T03:00:49.234Z,33.77
2022-12-08T03:03:26.462Z,33.57
2022-12-08T03:06:06.950Z,34.87
2022-12-08T03:08:43.484Z,35.70
2022-12-08T03:11:16.135Z,57.73
2022-12-08T03:13:47.672Z,42.93
2022-12-08T03:16:22.964Z,33.63
2022-12-08T03:18:56.241Z,35.03
2022-12-08T03:21:26.826Z,36.07
2022-12-08T03:23:58.749Z,43.30
2022-12-08T03:26:32.139Z,38.53
2022-12-08T03:29:01.399Z,39.00
2022-12-08T03:31:35.736Z,43.43
2022-12-08T03:34:06.335Z,43.23
2022-12-08T03:36:36.482Z,40.30
2022-12-08T03:39:05.151Z,41.23
2022-12-08T03:41:33.926Z,42.53
2022-12-08T03:44:02.211Z,44.63
2022-12-08T03:46:32.087Z,45.20
2022-12-08T03:49:00.477Z,47.17
2022-12-08T03:51:30.282Z,48.63
2022-12-08T03:54:00.101Z,46.67
2022-12-08T03:56:30.785Z,48.17
2022-12-08T03:59:00.153Z,52.57
2022-12-08T04:01:28.694Z,54.93
2022-12-08T04:03:57.288Z,54.57
2022-12-08T04:06:26.544Z,55.87
2022-12-08T04:08:54.909Z,56.20
2022-12-08T04:11:24.660Z,54.93
2022-12-08T04:13:53.416Z,53.80
2022-12-08T04:16:26.644Z,57.40
2022-12-08T04:18:55.219Z,59.60
2022-12-08T04:21:24.198Z,57.87
2022-12-08T04:23:57.540Z,60.33
2022-12-08T04:26:30.688Z,58.67
2022-12-08T04:28:59.417Z,60.53
2022-12-08T04:31:28.061Z,63.33
2022-12-08T04:33:56.471Z,64.67
2022-12-08T04:36:24.790Z,66.43
2022-12-08T04:38:53.289Z,66.03
2022-12-08T04:41:21.664Z,69.73
2022-12-08T04:43:51.364Z,66.90
2022-12-08T04:46:19.815Z,71.17
2022-12-08T04:48:48.264Z,68.00
2022-12-08T04:51:18.000Z,74.80
2022-12-08T04:53:47.303Z,69.77
2022-12-08T04:56:16.089Z,66.97
2022-12-08T04:58:44.786Z,78.17
2022-12-08T05:01:15.240Z,89.00
2022-12-08T05:03:43.731Z,96.83
2022-12-08T05:06:14.868Z,77.63
2022-12-08T05:08:43.528Z,79.77
2022-12-08T05:11:13.413Z,95.43
2022-12-08T05:13:41.936Z,78.73
2022-12-08T05:16:13.003Z,80.17
2022-12-08T05:18:43.360Z,78.07
2022-12-08T05:21:12.139Z,88.30
2022-12-08T05:23:40.536Z,72.30
2022-12-08T05:26:09.212Z,78.83
2022-12-08T05:28:42.259Z,80.17
2022-12-08T05:31:11.809Z,78.20
2022-12-08T05:33:40.285Z,78.63
2022-12-08T05:36:11.860Z,76.30
2022-12-08T05:38:40.571Z,88.17
2022-12-08T05:41:09.902Z,84.73
2022-12-08T05:43:38.367Z,78.20
2022-12-08T05:46:07.831Z,67.30
2022-12-08T05:48:37.019Z,65.13
2022-12-08T05:51:06.495Z,73.40
2022-12-08T05:53:36.547Z,65.00
2022-12-08T05:56:05.130Z,72.83
2022-12-08T05:58:33.924Z,69.03
2022-12-08T06:01:02.349Z,61.90
2022-12-08T06:03:31.093Z,65.10
2022-12-08T06:05:59.580Z,70.50
2022-12-08T06:08:28.084Z,55.03
2022-12-08T06:10:58.033Z,66.43
2022-12-08T06:13:26.379Z,66.33
2022-12-08T06:15:54.810Z,59.03
2022-12-08T06:18:24.588Z,62.07
2022-12-08T06:21:04.283Z,54.13
2022-12-08T06:23:32.843Z,53.97
2022-12-08T06:26:04.437Z,49.30
2022-12-08T06:28:33.793Z,54.83
2022-12-08T06:31:07.645Z,49.70
2022-12-08T06:33:36.281Z,48.13
2022-12-08T06:36:07.417Z,46.13
2022-12-08T06:38:40.448Z,49.20
2022-12-08T06:41:13.890Z,45.20
2022-12-08T06:43:43.222Z,41.70
2022-12-08T06:46:14.739Z,33.70
2022-12-08T06:48:43.268Z,37.67
2022-12-08T06:51:13.361Z,37.40
2022-12-08T06:53:42.450Z,33.67
2022-12-08T06:56:12.900Z,32.97
2022-12-08T06:58:41.626Z,31.00
2022-12-08T07:01:12.551Z,30.60
2022-12-08T07:03:43.658Z,32.40
2022-12-08T07:06:17.317Z,26.57
2022-12-08T07:08:46.054Z,31.50
2022-12-08T07:11:21.134Z,31.50
2022-12-08T07:13:52.776Z,30.57
2022-12-08T07:16:21.573Z,30.30
2022-12-08T07:18:50.072Z,26.43
2022-12-08T07:21:20.113Z,32.63
2022-12-08T07:23:54.244Z,33.07
2022-12-08T07:26:26.918Z,30.93
2022-12-08T07:28:55.639Z,33.47
2022-12-08T07:31:26.377Z,34.43
2022-12-08T07:33:55.315Z,35.13
2022-12-08T07:36:24.026Z,31.67
2022-12-08T07:38:54.381Z,35.63
2022-12-08T07:41:25.904Z,34.40
2022-12-08T07:43:56.508Z,34.67
2022-12-08T07:46:26.820Z,30.77
2022-12-08T07:48:55.880Z,35.47
2022-12-08T07:51:25.269Z,33.93
2022-12-08T07:53:55.030Z,35.80
2022-12-08T07:56:25.185Z,29.47
2022-12-08T07:58:53.790Z,38.53
2022-12-08T08:01:24.839Z,39.33
2022-12-08T08:03:54.365Z,28.77
2022-12-08T08:06:23.024Z,26.80
2022-12-08T08:08:51.988Z,31.67
2022-12-08T08:11:21.746Z,26.93
2022-12-08T08:13:52.035Z,25.27
2022-12-08T08:16:24.003Z,24.70
2022-12-08T08:18:53.650Z,51.07
2022-12-08T08:24:11.691Z,28.90
2022-12-08T08:26:40.184Z,34.50
2022-12-08T08:29:10.128Z,28.10
2022-12-08T08:31:39.269Z,46.47
2022-12-08T08:34:09.293Z,60.50
2022-12-08T08:36:37.982Z,27.83
2022-12-08T08:39:06.935Z,54.73
2022-12-08T08:41:35.975Z,84.23
2022-12-08T08:44:04.439Z,32.60
2022-12-08T08:46:35.034Z,37.90
2022-12-08T08:49:03.443Z,40.73
2022-12-08T08:51:31.874Z,44.97
2022-12-08T08:54:00.448Z,39.83
2022-12-08T08:56:28.858Z,40.07
2022-12-08T08:58:57.460Z,39.23
2022-12-08T09:01:27.393Z,35.20
2022-12-08T09:03:57.754Z,45.27
2022-12-08T09:06:28.369Z,38.60
2022-12-08T09:08:57.158Z,235.60
2022-12-08T09:11:26.142Z,49.57
2022-12-08T09:13:55.402Z,58.93
2022-12-08T09:16:24.108Z,37.97
2022-12-08T09:18:56.191Z,37.90
2022-12-08T09:21:28.368Z,60.90
2022-12-08T09:23:58.918Z,35.00
2022-12-08T09:26:29.039Z,49.90
2022-12-08T09:28:58.554Z,98.40
2022-12-08T09:31:27.658Z,53.77
2022-12-08T09:33:56.528Z,53.03
2022-12-08T09:36:26.732Z,38.80
2022-12-08T09:38:55.290Z,186.30
2022-12-08T09:41:39.201Z,61.57
2022-12-08T09:44:30.051Z,81.30
2022-12-08T09:47:00.646Z,38.83
2022-12-08T09:49:43.320Z,31.77
2022-12-08T09:52:21.349Z,34.97
2022-12-08T09:54:52.042Z,22.57
2022-12-08T09:57:24.930Z,23.67
2022-12-08T10:00:05.155Z,18.37
2022-12-08T10:02:33.926Z,18.37
2022-12-08T10:05:18.438Z,36.87
2022-12-08T10:07:56.576Z,24.83
2022-12-08T10:10:38.491Z,32.20
2022-12-08T10:13:18.134Z,20.40
2022-12-08T10:15:53.739Z,33.43
2022-12-08T10:18:30.869Z,23.00
2022-12-08T10:21:13.643Z,18.37
2022-12-08T10:23:47.487Z,19.23
2022-12-08T10:26:19.268Z,27.63
2022-12-08T10:28:48.211Z,21.73
2022-12-08T10:31:22.499Z,23.17
2022-12-08T10:33:57.734Z,27.43
2022-12-08T10:36:52.529Z,23.00
2022-12-08T10:39:37.594Z,27.23
2022-12-08T10:42:19.197Z,28.50
2022-12-08T10:45:23.343Z,26.77
2022-12-08T10:48:01.805Z,24.60
2022-12-08T10:50:34.032Z,33.07
2022-12-08T10:53:04.207Z,28.17
2022-12-08T10:55:43.132Z,52.83
2022-12-08T10:58:32.338Z,25.37
2022-12-08T11:01:04.815Z,32.77
2022-12-08T11:03:37.746Z,25.10
2022-12-08T11:06:17.043Z,26.23
2022-12-08T11:08:55.457Z,22.37
2022-12-08T11:14:26.833Z,26.00
2022-12-08T11:16:57.609Z,21.97
2022-12-08T11:19:29.868Z,19.87
2022-12-08T11:21:58.557Z,21.67
2022-12-08T11:24:33.513Z,22.67
2022-12-08T11:27:16.333Z,18.37
2022-12-08T11:30:09.689Z,32.63
2022-12-08T11:32:42.657Z,21.10
2022-12-08T11:35:16.606Z,19.60
2022-12-08T11:37:46.233Z,21.53
2022-12-08T11:40:22.315Z,18.33
2022-12-08T11:43:00.807Z,15.13
2022-12-08T11:45:36.323Z,15.90
2022-12-08T11:48:19.485Z,15.33
2022-12-08T11:50:56.728Z,18.30
2022-12-08T11:53:33.784Z,18.50
2022-12-08T11:56:09.349Z,86.57
2022-12-08T11:58:47.370Z,36.87
2022-12-08T12:01:25.328Z,24.90
2022-12-08T12:04:14.539Z,25.53
2022-12-08T12:07:26.345Z,27.47
2022-12-08T12:10:26.336Z,17.17
2022-12-08T12:13:08.297Z,20.40
2022-12-08T12:16:19.171Z,23.03
2022-12-08T12:18:54.766Z,21.57
2022-12-08T12:21:38.753Z,17.80
2022-12-08T12:24:16.936Z,50.30
2022-12-08T12:27:02.501Z,78.97
2022-12-08T12:29:38.030Z,41.80
2022-12-08T12:32:13.126Z,26.70
2022-12-08T12:34:51.510Z,32.73
2022-12-08T12:37:23.810Z,25.20
2022-12-08T12:40:00.124Z,14.83
2022-12-08T12:42:43.027Z,21.00
2022-12-08T12:45:32.100Z,37.03
2022-12-08T12:48:24.521Z,18.57
2022-12-08T12:51:24.575Z,20.40
2022-12-08T12:53:54.733Z,15.33
2022-12-08T12:56:55.929Z,22.50
2022-12-08T12:59:46.177Z,15.27
2022-12-08T13:02:24.157Z,24.00
2022-12-08T13:05:02.284Z,17.33
2022-12-08T13:07:35.082Z,19.97
2022-12-08T13:10:13.665Z,33.77
2022-12-08T13:12:50.351Z,28.10
2022-12-08T13:15:25.130Z,27.63
2022-12-08T13:17:54.051Z,39.50
2022-12-08T13:20:25.380Z,36.87
2022-12-08T13:23:18.007Z,32.97
2022-12-08T13:25:55.739Z,34.10
2022-12-08T13:28:28.578Z,24.83
2022-12-08T13:31:05.793Z,27.10
2022-12-08T13:33:39.929Z,19.80
2022-12-08T13:36:18.918Z,24.20
2022-12-08T13:38:55.446Z,43.33
2022-12-08T13:41:31.469Z,35.27
2022-12-08T13:45:03.592Z,42.93
2022-12-08T13:58:47.252Z,55.10
2022-12-08T14:01:21.043Z,38.13
2022-12-08T14:04:33.807Z,29.93
2022-12-08T14:06:51.728Z,42.37
2022-12-08T14:09:27.496Z,35.03
2022-12-08T14:12:04.001Z,60.23
2022-12-08T14:17:24.836Z,42.27
2022-12-08T14:20:02.133Z,31.87
2022-12-08T14:22:35.436Z,52.93
2022-12-08T14:25:05.274Z,87.17
2022-12-08T14:27:44.748Z,33.50
2022-12-08T14:30:21.053Z,36.37
2022-12-08T14:32:56.440Z,115.30
2022-12-08T14:35:27.603Z,66.93
2022-12-08T14:38:07.169Z,27.83
2022-12-08T14:40:37.811Z,36.83
2022-12-08T14:43:17.720Z,66.10
2022-12-08T14:45:53.460Z,72.37
2022-12-08T14:48:46.630Z,30.03
2022-12-08T14:51:29.323Z,57.20
2022-12-08T14:54:04.209Z,23.87
2022-12-08T14:56:51.822Z,69.40
2022-12-08T14:59:27.456Z,92.00
2022-12-08T15:02:27.845Z,48.07
2022-12-08T15:05:04.899Z,168.50
2022-12-08T15:07:48.066Z,88.00
2022-12-08T15:10:34.390Z,104.87
2022-12-08T15:13:09.205Z,115.30
2022-12-08T15:15:55.838Z,133.60
2022-12-08T15:18:48.466Z,146.70
2022-12-08T15:21:21.481Z,157.70
2022-12-08T15:24:06.278Z,30.00
2022-12-08T15:26:43.248Z,44.37
2022-12-08T15:29:13.916Z,33.97
2022-12-08T15:31:48.641Z,21.97
2022-12-08T15:34:21.721Z,33.27
2022-12-08T15:37:00.928Z,30.20
2022-12-08T15:39:41.859Z,28.77
2022-12-08T15:42:17.722Z,32.37
2022-12-08T15:44:47.200Z,34.40
2022-12-08T15:47:28.738Z,30.13
2022-12-08T15:49:58.224Z,30.40
2022-12-08T15:52:29.528Z,37.43
2022-12-08T15:54:59.564Z,40.23
2022-12-08T16:00:54.550Z,32.70
2022-12-08T16:07:12.787Z,36.47
2022-12-08T16:09:25.523Z,38.87
2022-12-08T16:12:12.155Z,35.87
2022-12-08T16:17:47.545Z,38.87
2022-12-08T16:21:05.551Z,40.13
2022-12-08T16:23:41.718Z,44.53
2022-12-08T16:26:35.633Z,44.57
2022-12-08T16:29:14.136Z,42.67
2022-12-08T16:31:43.649Z,45.50
2022-12-08T16:34:13.626Z,51.13
2022-12-08T16:36:47.543Z,55.30
2022-12-08T16:39:36.281Z,44.47
2022-12-08T16:42:24.950Z,48.83
2022-12-08T16:45:04.595Z,53.70
2022-12-08T16:47:40.585Z,59.60
2022-12-08T16:50:20.391Z,53.27
2022-12-08T16:53:02.599Z,52.83
2022-12-08T16:55:33.956Z,61.23
2022-12-08T16:58:06.364Z,59.87
2022-12-08T17:00:53.983Z,51.43
2022-12-08T17:03:23.444Z,55.60
2022-12-08T17:06:02.307Z,51.80
2022-12-08T17:08:38.534Z,45.20
2022-12-08T17:11:14.340Z,53.27
2022-12-08T17:13:46.407Z,55.40
2022-12-08T17:16:23.171Z,40.67
2022-12-08T17:19:00.136Z,52.53
2022-12-08T17:21:32.115Z,47.27
2022-12-08T17:24:06.404Z,53.43
2022-12-08T17:26:36.507Z,50.33
2022-12-08T17:29:06.680Z,58.93
2022-12-08T17:31:37.443Z,48.17
2022-12-08T17:34:13.817Z,66.57
2022-12-08T17:36:42.853Z,70.97
2022-12-08T17:39:21.648Z,171.73
2022-12-08T17:41:52.150Z,113.80
2022-12-08T17:44:31.372Z,147.63
2022-12-08T17:47:08.248Z,129.77
2022-12-08T17:49:39.853Z,146.57
2022-12-08T17:52:12.487Z,142.60
2022-12-08T17:54:43.865Z,86.53
2022-12-08T17:57:14.469Z,62.67
2022-12-08T17:59:44.712Z,72.73
2022-12-08T18:02:19.103Z,63.57
2022-12-08T18:04:48.270Z,53.60
2022-12-08T18:07:24.175Z,54.10
2022-12-08T18:09:57.153Z,55.67
2022-12-08T18:12:36.546Z,60.87
2022-12-08T18:15:11.024Z,55.40
2022-12-08T18:17:41.750Z,49.97
2022-12-08T18:20:19.707Z,56.90
2022-12-08T18:22:55.037Z,47.53
2022-12-08T18:25:39.670Z,55.00
2022-12-08T18:28:16.821Z,62.10
2022-12-08T18:31:00.320Z,67.23
2022-12-08T18:33:43.550Z,75.93
2022-12-08T18:36:18.502Z,46.00
2022-12-08T18:38:55.986Z,45.50
2022-12-08T18:41:33.108Z,46.30
2022-12-08T18:44:08.633Z,62.90
2022-12-08T18:46:47.315Z,57.50
2022-12-08T18:49:24.202Z,55.43
2022-12-08T18:52:10.273Z,50.80
2022-12-08T18:55:05.368Z,41.90
2022-12-08T18:57:44.043Z,41.17
2022-12-08T19:00:34.468Z,55.10
2022-12-08T19:03:13.517Z,39.07
2022-12-08T19:05:45.853Z,45.00
2022-12-08T19:08:26.723Z,43.10
2022-12-08T19:11:08.846Z,53.97
2022-12-08T19:13:50.189Z,40.97
2022-12-08T19:16:23.632Z,40.43
2022-12-08T19:19:10.150Z,44.10
2022-12-08T19:21:46.524Z,39.60
2022-12-08T19:24:25.006Z,33.00
2022-12-08T19:26:59.511Z,31.10
2022-12-08T19:29:43.526Z,34.87
2022-12-08T19:32:16.699Z,34.00
2022-12-08T19:35:09.169Z,38.83
2022-12-08T19:37:39.857Z,30.57
2022-12-08T19:40:33.695Z,30.93
2022-12-08T19:43:26.212Z,38.37
2022-12-08T19:46:14.367Z,34.30
2022-12-08T19:48:47.870Z,30.23
2022-12-08T19:51:31.216Z,37.97
2022-12-08T19:54:07.570Z,44.27
2022-12-08T19:56:50.115Z,40.77
2022-12-08T19:59:21.744Z,41.93
2022-12-08T20:04:49.800Z,39.03
2022-12-08T20:07:27.864Z,82.93
2022-12-08T20:10:03.857Z,59.33
2022-12-08T20:12:41.104Z,76.07
2022-12-08T20:15:23.558Z,50.37
2022-12-08T20:18:03.624Z,44.83
2022-12-08T20:20:38.181Z,56.87
2022-12-08T20:23:09.630Z,47.33
2022-12-08T20:25:47.081Z,42.50
2022-12-08T20:28:20.432Z,54.73
2022-12-08T20:30:53.039Z,50.70
2022-12-08T20:33:30.402Z,65.47
2022-12-08T20:36:08.463Z,63.87
2022-12-08T20:38:40.730Z,58.83
2022-12-08T20:41:16.255Z,58.03
2022-12-08T20:43:45.158Z,61.27
2022-12-08T20:46:22.234Z,69.93
2022-12-08T20:49:04.621Z,102.13
2022-12-08T20:51:42.996Z,109.27
2022-12-08T20:54:15.753Z,115.43
2022-12-08T20:56:49.160Z,88.60
2022-12-08T20:59:23.922Z,73.93
2022-12-08T21:01:55.509Z,76.23
2022-12-08T21:04:25.999Z,85.70
2022-12-08T21:06:56.066Z,85.97
2022-12-08T21:09:24.788Z,80.30
2022-12-08T21:11:55.809Z,82.93
2022-12-08T21:14:25.583Z,82.20
2022-12-08T21:16:54.830Z,73.83
2022-12-08T21:19:25.268Z,72.37
2022-12-08T21:21:54.442Z,90.33
2022-12-08T21:24:24.681Z,85.23
2022-12-08T21:26:56.526Z,86.13
2022-12-08T21:29:27.112Z,81.73
2022-12-08T21:31:58.771Z,99.67
2022-12-08T21:34:36.736Z,90.87
2022-12-08T21:37:10.105Z,80.30
2022-12-08T21:39:47.753Z,76.27
2022-12-08T21:42:35.298Z,91.33
2022-12-08T21:45:06.777Z,87.07
2022-12-08T21:47:39.727Z,101.07
2022-12-08T21:50:12.029Z,101.00
2022-12-08T21:52:43.046Z,79.17
2022-12-08T21:55:15.045Z,105.57
2022-12-08T21:57:51.200Z,79.70
2022-12-08T22:00:22.639Z,89.40
2022-12-08T22:02:54.544Z,73.60
2022-12-08T22:05:27.995Z,78.43
2022-12-08T22:07:57.728Z,110.87
2022-12-08T22:10:28.036Z,107.43
2022-12-08T22:12:57.147Z,109.97
2022-12-08T22:15:29.996Z,95.37
2022-12-08T22:17:58.934Z,92.50
2022-12-08T22:20:29.774Z,102.90
2022-12-08T22:23:03.523Z,87.80
2022-12-08T22:25:33.380Z,96.50
2022-12-08T22:28:03.435Z,107.10
2022-12-08T22:30:39.710Z,105.60
2022-12-08T22:33:14.856Z,121.23
2022-12-08T22:35:45.119Z,89.43
2022-12-08T22:38:16.945Z,90.57
2022-12-08T22:40:46.215Z,140.43
2022-12-08T22:43:15.895Z,96.70
2022-12-08T22:45:53.757Z,98.30
2022-12-08T22:48:26.278Z,93.40
2022-12-08T22:51:03.890Z,87.20
2022-12-08T22:53:33.058Z,79.60
2022-12-08T22:56:05.668Z,92.43
2022-12-08T22:58:40.557Z,131.00
2022-12-08T23:01:21.380Z,107.40
2022-12-08T23:04:17.397Z,128.87
2022-12-08T23:06:47.793Z,128.60
2022-12-08T23:09:16.577Z,97.13
2022-12-08T23:11:45.492Z,109.00
2022-12-08T23:14:14.271Z,99.90
2022-12-08T23:16:43.096Z,92.73
2022-12-08T23:19:11.971Z,97.03
2022-12-08T23:21:40.841Z,102.60
2022-12-08T23:24:10.826Z,105.57
2022-12-08T23:26:40.082Z,93.23
2022-12-08T23:29:08.683Z,104.37
2022-12-08T23:31:40.254Z,101.07
2022-12-08T23:34:08.936Z,114.00
2022-12-08T23:36:38.050Z,110.50
2022-12-08T23:39:06.830Z,105.53
2022-12-08T23:41:37.056Z,110.63
2022-12-08T23:44:05.631Z,106.83
2022-12-08T23:46:34.552Z,118.50
2022-12-08T23:49:03.476Z,105.97
2022-12-08T23:51:32.423Z,102.87
2022-12-08T23:54:06.674Z,90.23
2022-12-08T23:56:36.875Z,81.73
2022-12-08T23:59:05.666Z,106.70
